Time;durP1;ratioP1;P1;durP2;ratioP2;P2;SDS_P1;SDS_P2;PMS_P1;PMS_P2;Temp;Humidity;BMP_temperature;BMP_pressure;BME280_temperature;BME280_humidity;BME280_pressure;Samples;Min_cycle;Max_cycle;Signal;HPM_P1;HPM_P2
2023/03/28 00:01:09;;;;;;;0.40;0.32;;;3.80;99.90;;;;;;5003547;28;20069;-81
2023/03/28 00:03:38;;;;;;;3.17;0.28;;;3.90;99.90;;;;;;5005316;28;20046;-80
2023/03/28 00:06:17;;;;;;;1.98;0.73;;;3.80;99.90;;;;;;5007699;28;20045;-78
2023/03/28 00:08:44;;;;;;;0.17;0.13;;;3.80;99.90;;;;;;5024016;28;20055;-76
2023/03/28 00:11:18;;;;;;;0.40;0.40;;;3.80;99.90;;;;;;5015446;28;20053;-80
2023/03/28 00:13:45;;;;;;;0.57;0.25;;;3.70;99.90;;;;;;5005303;28;20081;-80
2023/03/28 00:16:14;;;;;;;1.85;0.75;;;3.70;99.90;;;;;;5004049;28;20566;-78
2023/03/28 00:18:41;;;;;;;2.08;0.73;;;3.70;99.90;;;;;;5005889;28;20085;-80
2023/03/28 00:21:24;;;;;;;0.82;0.43;;;3.70;99.90;;;;;;5004756;28;20042;-80
2023/03/28 00:23:52;;;;;;;0.20;0.20;;;3.70;99.90;;;;;;5005341;28;20038;-78
2023/03/28 00:26:19;;;;;;;3.83;1.65;;;3.70;99.90;;;;;;5003771;28;20494;-79
2023/03/28 00:28:45;;;;;;;0.40;0.40;;;3.70;99.90;;;;;;5005103;28;20673;-80
2023/03/28 00:31:11;;;;;;;3.05;0.40;;;3.60;99.90;;;;;;5004665;28;20069;-77
2023/03/28 00:33:36;;;;;;;2.90;0.55;;;3.60;99.90;;;;;;5004686;28;20044;-80
2023/03/28 00:36:02;;;;;;;1.25;0.60;;;3.60;99.90;;;;;;5004830;28;20096;-80
2023/03/28 00:38:28;;;;;;;2.72;0.50;;;3.60;99.90;;;;;;5004211;28;20041;-78
2023/03/28 00:40:56;;;;;;;1.95;0.57;;;3.60;99.90;;;;;;5002722;28;20041;-77
2023/03/28 00:43:42;;;;;;;2.53;0.45;;;3.60;99.90;;;;;;5004389;28;20042;-79
2023/03/28 00:46:29;;;;;;;2.88;0.50;;;3.60;99.90;;;;;;5018454;28;20056;-79
2023/03/28 00:49:04;;;;;;;2.60;0.75;;;3.60;99.90;;;;;;5005160;28;20052;-78
2023/03/28 00:51:36;;;;;;;1.42;0.60;;;3.50;99.90;;;;;;5004260;28;20095;-79
2023/03/28 00:54:03;;;;;;;7.03;0.43;;;3.50;99.90;;;;;;5004663;28;20050;-79
2023/03/28 00:56:33;;;;;;;0.85;0.45;;;3.50;99.90;;;;;;4994152;28;20086;-77
2023/03/28 00:59:01;;;;;;;5.07;0.70;;;3.50;99.90;;;;;;5024733;28;20096;-79
2023/03/28 01:01:27;;;;;;;2.95;0.70;;;3.50;99.90;;;;;;5024762;28;20038;-80
2023/03/28 01:04:01;;;;;;;0.70;0.40;;;3.40;99.90;;;;;;5006568;28;20119;-78
2023/03/28 01:06:31;;;;;;;1.88;0.60;;;3.40;99.90;;;;;;5101064;23;20885;-80
2023/03/28 01:08:59;;;;;;;2.53;0.32;;;3.40;99.90;;;;;;5003191;28;20552;-76
2023/03/28 01:11:26;;;;;;;2.50;0.43;;;3.40;99.90;;;;;;5003753;28;20429;-79
2023/03/28 01:13:52;;;;;;;1.00;0.40;;;3.40;99.90;;;;;;5004332;28;20125;-80
2023/03/28 01:16:21;;;;;;;3.13;0.30;;;3.40;99.90;;;;;;5004052;28;20068;-78
2023/03/28 01:18:50;;;;;;;1.02;0.40;;;3.40;99.90;;;;;;5003209;28;20050;-78
2023/03/28 01:21:53;;;;;;;2.80;0.45;;;3.40;99.90;;;;;;5004406;28;20050;-80
2023/03/28 01:25:04;;;;;;;1.65;0.45;;;3.30;99.90;;;;;;5004231;28;20038;-76
2023/03/28 01:27:53;;;;;;;3.20;0.43;;;3.30;99.90;;;;;;5003308;28;20050;-77
2023/03/28 01:30:30;;;;;;;4.13;0.40;;;3.30;99.90;;;;;;5002707;28;20061;-80
2023/03/28 01:33:14;;;;;;;6.47;0.65;;;3.10;99.90;;;;;;5003422;28;20045;-80
2023/03/28 01:35:48;;;;;;;0.85;0.70;;;3.10;99.90;;;;;;5003227;28;20050;-80
2023/03/28 01:38:51;;;;;;;1.55;0.63;;;3.10;99.90;;;;;;5002917;28;20061;-78
2023/03/28 01:41:29;;;;;;;2.83;0.63;;;3.00;99.90;;;;;;4983491;28;20089;-80
2023/03/28 01:44:03;;;;;;;1.70;0.63;;;3.00;99.90;;;;;;5004844;28;20050;-79
2023/03/28 01:46:34;;;;;;;0.37;0.30;;;3.00;99.90;;;;;;5006009;28;20595;-80
2023/03/28 01:49:11;;;;;;;0.87;0.20;;;3.00;99.90;;;;;;4970790;28;20074;-78
2023/03/28 01:51:57;;;;;;;1.30;0.67;;;2.90;99.90;;;;;;4990901;28;20047;-80
2023/03/28 01:54:43;;;;;;;0.30;0.20;;;2.90;99.90;;;;;;4988474;28;20054;-80
2023/03/28 01:57:24;;;;;;;3.23;0.47;;;2.80;99.90;;;;;;4986596;28;20502;-80
2023/03/28 01:59:52;;;;;;;2.63;0.47;;;2.80;99.90;;;;;;4988511;28;20050;-80
2023/03/28 02:02:30;;;;;;;0.77;0.40;;;2.70;99.90;;;;;;4988421;28;20397;-79
2023/03/28 02:04:58;;;;;;;4.53;0.60;;;2.70;99.90;;;;;;4988670;28;20138;-78
2023/03/28 02:07:26;;;;;;;0.50;0.32;;;2.60;99.90;;;;;;4988682;28;20129;-79
2023/03/28 02:09:53;;;;;;;0.30;0.30;;;2.60;99.90;;;;;;4988478;28;20046;-81
2023/03/28 02:12:24;;;;;;;1.35;0.22;;;2.60;99.90;;;;;;4985320;28;20058;-78
2023/03/28 02:14:51;;;;;;;2.37;0.50;;;2.60;99.90;;;;;;4988122;28;20050;-78
2023/03/28 02:17:19;;;;;;;2.50;0.40;;;2.60;99.90;;;;;;4988314;28;20075;-80
2023/03/28 02:19:53;;;;;;;0.53;0.40;;;2.50;99.90;;;;;;4988053;28;20049;-80
2023/03/28 02:22:34;;;;;;;2.83;0.80;;;2.50;99.90;;;;;;4988333;28;20489;-80
2023/03/28 02:25:01;;;;;;;3.20;0.73;;;2.50;99.90;;;;;;4989322;28;20073;-79
2023/03/28 02:27:27;;;;;;;0.80;0.57;;;2.50;99.90;;;;;;5007261;28;20073;-78
2023/03/28 02:29:53;;;;;;;1.10;0.70;;;2.60;99.90;;;;;;5006610;28;20050;-80
2023/03/28 02:32:23;;;;;;;4.53;0.90;;;2.60;99.90;;;;;;5005890;28;20107;-79
2023/03/28 02:34:52;;;;;;;4.17;0.47;;;2.50;99.90;;;;;;5007477;28;20046;-79
2023/03/28 02:37:36;;;;;;;3.27;0.50;;;2.50;99.90;;;;;;5007319;28;20045;-80
2023/03/28 02:40:23;;;;;;;2.27;0.50;;;2.50;99.90;;;;;;5005859;28;20085;-80
2023/03/28 02:43:18;;;;;;;3.53;0.63;;;2.40;99.90;;;;;;5007108;28;20409;-75
2023/03/28 02:45:53;;;;;;;0.40;0.30;;;2.40;99.90;;;;;;5007170;28;20075;-78
2023/03/28 02:48:36;;;;;;;0.20;0.20;;;2.40;99.90;;;;;;5005467;28;20129;-80
2023/03/28 02:51:22;;;;;;;1.03;0.47;;;2.40;99.90;;;;;;5005341;28;20065;-78
2023/03/28 02:53:57;;;;;;;0.83;0.43;;;2.40;99.90;;;;;;5007233;28;20138;-79
2023/03/28 02:56:30;;;;;;;5.23;0.80;;;2.40;99.90;;;;;;5005488;28;20045;-77
2023/03/28 02:59:07;;;;;;;1.60;0.50;;;2.30;99.90;;;;;;5005923;28;20049;-79
2023/03/28 03:01:35;;;;;;;2.00;0.53;;;2.30;99.90;;;;;;5007193;28;20042;-80
2023/03/28 03:04:01;;;;;;;0.77;0.47;;;2.30;99.90;;;;;;4987059;28;20450;-80
2023/03/28 03:06:27;;;;;;;1.48;0.50;;;2.30;99.90;;;;;;4987939;28;20065;-80
2023/03/28 03:08:52;;;;;;;4.57;0.60;;;2.30;99.90;;;;;;4987294;28;20038;-80
2023/03/28 03:11:18;;;;;;;2.70;0.60;;;2.30;99.90;;;;;;4985808;28;20042;-79
2023/03/28 03:13:44;;;;;;;2.00;0.53;;;2.20;99.90;;;;;;4985884;28;20046;-77
2023/03/28 03:16:10;;;;;;;0.50;0.50;;;2.20;99.90;;;;;;4986919;28;20078;-80
2023/03/28 03:18:35;;;;;;;2.40;0.70;;;2.20;99.90;;;;;;4987072;28;20089;-79
2023/03/28 03:21:02;;;;;;;0.30;0.30;;;2.20;99.90;;;;;;4985671;28;20082;-79
2023/03/28 03:23:28;;;;;;;0.20;0.20;;;2.10;99.90;;;;;;4996617;28;20555;-80
2023/03/28 03:25:53;;;;;;;0.47;0.30;;;2.00;99.90;;;;;;5005470;28;20152;-80
2023/03/28 03:28:20;;;;;;;0.77;0.40;;;2.00;99.90;;;;;;5005122;28;20120;-78
2023/03/28 03:30:45;;;;;;;5.13;0.70;;;2.00;99.90;;;;;;5006311;28;20057;-80
2023/03/28 03:33:13;;;;;;;2.00;0.83;;;2.00;99.90;;;;;;5006130;28;20038;-80
2023/03/28 03:35:40;;;;;;;2.63;0.50;;;2.00;99.90;;;;;;5004720;28;20045;-80
2023/03/28 03:38:07;;;;;;;2.80;0.60;;;2.00;99.90;;;;;;5006175;28;20050;-80
2023/03/28 03:40:33;;;;;;;0.20;0.20;;;2.10;99.90;;;;;;5003824;28;20049;-79
2023/03/28 03:42:59;;;;;;;1.53;0.70;;;2.10;99.90;;;;;;4988893;28;20042;-79
2023/03/28 03:45:25;;;;;;;0.27;0.27;;;2.10;99.90;;;;;;5004475;28;20038;-81
2023/03/28 03:47:50;;;;;;;0.83;0.30;;;2.10;99.90;;;;;;5006399;28;20077;-78
2023/03/28 03:50:16;;;;;;;0.40;0.40;;;2.10;99.90;;;;;;5020862;28;20517;-80
2023/03/28 03:52:41;;;;;;;0.20;0.20;;;2.10;99.90;;;;;;5005603;28;20050;-76
2023/03/28 03:55:08;;;;;;;3.23;0.57;;;2.10;99.90;;;;;;5004797;28;20073;-80
2023/03/28 03:57:33;;;;;;;1.40;0.33;;;2.10;99.90;;;;;;5005795;28;20117;-80
2023/03/28 04:00:00;;;;;;;0.50;0.50;;;2.20;99.90;;;;;;5004448;28;20565;-76
2023/03/28 04:02:26;;;;;;;2.70;0.40;;;2.20;99.90;;;;;;4985735;28;20046;-80
2023/03/28 04:04:52;;;;;;;3.63;0.40;;;2.20;99.90;;;;;;4979930;28;20607;-78
2023/03/28 04:07:18;;;;;;;1.20;0.30;;;2.20;99.90;;;;;;5003129;28;20050;-78
2023/03/28 04:09:43;;;;;;;0.87;0.70;;;2.20;99.90;;;;;;4987932;28;20153;-80
2023/03/28 04:12:10;;;;;;;3.50;0.30;;;2.20;99.90;;;;;;5004887;28;20050;-75
2023/03/28 04:14:36;;;;;;;0.23;0.20;;;2.20;99.90;;;;;;4995947;28;20050;-80
2023/03/28 04:17:03;;;;;;;1.50;0.40;;;2.30;99.90;;;;;;4985429;28;20045;-76
2023/03/28 04:19:29;;;;;;;1.90;0.43;;;2.20;99.90;;;;;;4986384;28;20047;-79
2023/03/28 04:21:55;;;;;;;1.07;0.53;;;2.30;99.90;;;;;;4984975;28;20050;-81
2023/03/28 04:24:23;;;;;;;1.47;0.60;;;2.20;99.90;;;;;;4967847;28;20057;-78
2023/03/28 04:26:49;;;;;;;3.80;0.90;;;2.20;99.90;;;;;;4983955;28;20051;-79
2023/03/28 04:29:16;;;;;;;1.80;0.40;;;2.20;99.90;;;;;;4985106;28;20659;-80
2023/03/28 04:31:48;;;;;;;2.17;0.90;;;2.20;99.90;;;;;;4985621;28;20042;-78
2023/03/28 04:34:18;;;;;;;0.50;0.30;;;2.20;99.90;;;;;;4985233;28;20117;-78
2023/03/28 04:36:45;;;;;;;2.27;0.40;;;2.10;99.90;;;;;;4984320;28;20065;-78
2023/03/28 04:39:12;;;;;;;0.93;0.30;;;2.10;99.90;;;;;;4985806;28;20168;-79
2023/03/28 04:41:37;;;;;;;0.63;0.50;;;2.10;99.90;;;;;;4983377;28;20089;-80
2023/03/28 04:44:03;;;;;;;1.37;0.33;;;2.00;99.90;;;;;;4984016;28;20537;-78
2023/03/28 04:46:29;;;;;;;0.57;0.40;;;2.00;99.90;;;;;;5002245;28;20076;-80
2023/03/28 04:48:54;;;;;;;2.90;0.97;;;2.00;99.90;;;;;;5004141;28;20042;-78
2023/03/28 04:51:20;;;;;;;0.47;0.30;;;2.00;99.90;;;;;;5004315;28;20041;-79
2023/03/28 04:53:46;;;;;;;0.73;0.50;;;1.90;99.90;;;;;;5004878;28;20057;-80
2023/03/28 04:56:14;;;;;;;4.93;0.60;;;1.90;99.90;;;;;;5002854;28;20046;-81
2023/03/28 04:58:40;;;;;;;3.67;0.57;;;1.90;99.90;;;;;;4988173;28;20042;-80
2023/03/28 05:01:09;;;;;;;2.87;0.67;;;1.90;99.90;;;;;;4986582;28;20398;-78
2023/03/28 05:03:36;;;;;;;0.20;0.20;;;1.80;99.90;;;;;;5004825;28;20513;-76
2023/03/28 05:06:03;;;;;;;0.30;0.30;;;1.80;99.90;;;;;;5003241;28;20125;-80
2023/03/28 05:08:31;;;;;;;1.37;0.30;;;1.80;99.90;;;;;;5004908;28;20452;-79
2023/03/28 05:10:57;;;;;;;3.40;0.77;;;1.90;99.90;;;;;;4986418;28;20060;-77
2023/03/28 05:13:24;;;;;;;2.87;0.47;;;1.90;99.90;;;;;;4994110;28;20046;-79
2023/03/28 05:15:50;;;;;;;2.70;0.70;;;1.90;99.90;;;;;;4997184;28;20049;-78
2023/03/28 05:18:16;;;;;;;0.40;0.40;;;2.00;99.90;;;;;;5001953;28;20056;-83
2023/03/28 05:20:41;;;;;;;2.60;0.57;;;1.90;99.90;;;;;;5002531;28;20050;-76
2023/03/28 05:23:07;;;;;;;1.20;0.50;;;1.90;99.90;;;;;;5003339;28;20146;-79
2023/03/28 05:25:34;;;;;;;0.73;0.60;;;1.90;99.90;;;;;;5002391;28;20037;-81
2023/03/28 05:28:00;;;;;;;3.70;0.43;;;1.90;99.90;;;;;;4992050;28;20038;-79
2023/03/28 05:30:26;;;;;;;10.50;0.93;;;1.90;99.90;;;;;;5006451;28;20076;-84
2023/03/28 05:32:52;;;;;;;1.23;0.37;;;2.00;99.90;;;;;;4996348;28;20038;-79
2023/03/28 05:35:18;;;;;;;2.83;0.40;;;2.00;99.90;;;;;;4985568;28;20145;-75
2023/03/28 05:37:44;;;;;;;0.70;0.40;;;2.00;99.90;;;;;;4997160;28;20107;-80
2023/03/28 05:40:12;;;;;;;0.60;0.50;;;2.00;99.90;;;;;;4994098;28;20046;-79
2023/03/28 05:42:38;;;;;;;1.50;0.40;;;2.10;99.90;;;;;;4986406;28;20066;-79
2023/03/28 05:45:06;;;;;;;1.70;0.50;;;2.00;99.90;;;;;;5001956;28;20078;-84
2023/03/28 05:47:31;;;;;;;1.20;0.30;;;2.10;99.90;;;;;;4996933;28;20057;-79
2023/03/28 05:49:57;;;;;;;1.20;0.23;;;2.10;99.90;;;;;;5008906;28;20057;-84
2023/03/28 05:52:23;;;;;;;2.00;0.30;;;2.00;99.90;;;;;;4999475;28;20038;-82
2023/03/28 05:54:48;;;;;;;0.93;0.40;;;2.10;99.90;;;;;;4990123;28;20105;-83
2023/03/28 05:57:14;;;;;;;0.50;0.50;;;2.10;99.90;;;;;;4984370;28;20042;-88
2023/03/28 05:59:41;;;;;;;2.60;0.83;;;2.10;99.90;;;;;;4998560;28;20046;-79
2023/03/28 06:02:12;;;;;;;3.40;0.33;;;2.10;99.90;;;;;;4999251;28;20054;-79
2023/03/28 06:04:38;;;;;;;0.30;0.30;;;2.10;99.90;;;;;;4983248;28;20129;-77
2023/03/28 06:07:05;;;;;;;2.00;0.33;;;2.20;99.90;;;;;;4984661;28;20058;-80
2023/03/28 06:09:31;;;;;;;1.63;0.40;;;2.20;99.90;;;;;;4983988;28;20054;-80
2023/03/28 06:11:57;;;;;;;0.30;0.30;;;2.30;99.90;;;;;;4982536;28;20046;-81
2023/03/28 06:14:23;;;;;;;0.73;0.37;;;2.30;99.90;;;;;;4992392;28;20053;-80
2023/03/28 06:16:48;;;;;;;1.50;0.43;;;2.30;99.90;;;;;;5003358;28;20482;-82
2023/03/28 06:19:14;;;;;;;0.70;0.30;;;2.40;99.90;;;;;;5000141;28;20546;-81
2023/03/28 06:21:39;;;;;;;10.17;0.83;;;2.40;99.90;;;;;;5002533;28;20057;-81
2023/03/28 06:24:05;;;;;;;0.20;0.20;;;2.50;99.90;;;;;;5000918;28;20057;-80
2023/03/28 06:26:31;;;;;;;3.30;0.37;;;2.50;99.90;;;;;;5001180;28;20092;-78
2023/03/28 06:28:56;;;;;;;0.70;0.50;;;2.50;99.90;;;;;;5001720;28;20169;-80
2023/03/28 06:31:22;;;;;;;0.17;0.17;;;2.50;99.90;;;;;;5007479;28;20042;-79
2023/03/28 06:33:47;;;;;;;0.23;0.23;;;2.60;99.90;;;;;;5004746;28;20049;-76
2023/03/28 06:36:13;;;;;;;0.30;0.27;;;2.60;99.90;;;;;;4987039;28;20100;-79
2023/03/28 06:38:39;;;;;;;0.50;0.50;;;2.60;99.90;;;;;;4987586;28;20050;-80
2023/03/28 06:41:05;;;;;;;1.10;0.40;;;2.70;99.90;;;;;;4997854;28;20048;-79
2023/03/28 06:43:31;;;;;;;1.63;0.30;;;2.70;99.90;;;;;;5004948;28;20045;-79
2023/03/28 06:45:56;;;;;;;2.97;0.50;;;2.70;99.90;;;;;;5006484;28;20050;-80
2023/03/28 06:48:28;;;;;;;0.27;0.27;;;2.80;99.90;;;;;;5001639;28;20383;-78
2023/03/28 06:50:54;;;;;;;0.30;0.30;;;2.80;99.90;;;;;;4987124;28;20125;-80
2023/03/28 06:53:19;;;;;;;1.37;0.30;;;2.90;99.90;;;;;;4986756;28;20854;-80
2023/03/28 06:55:45;;;;;;;0.33;0.33;;;2.90;99.90;;;;;;4984845;28;20154;-81
2023/03/28 06:58:10;;;;;;;3.37;0.70;;;3.00;99.90;;;;;;4995518;28;20042;-81
2023/03/28 07:00:37;;;;;;;0.70;0.40;;;3.00;99.90;;;;;;4987109;28;20465;-80
2023/03/28 07:03:03;;;;;;;0.33;0.33;;;3.10;99.90;;;;;;4987865;28;20046;-79
2023/03/28 07:05:28;;;;;;;0.37;0.37;;;3.30;99.90;;;;;;5004880;28;20057;-80
2023/03/28 07:07:54;;;;;;;0.73;0.40;;;3.30;99.90;;;;;;5004630;28;20224;-79
2023/03/28 07:10:20;;;;;;;0.57;0.38;;;3.50;99.90;;;;;;5004490;28;20407;-81
2023/03/28 07:12:45;;;;;;;0.30;0.30;;;3.60;99.90;;;;;;5005670;28;20485;-81
2023/03/28 07:15:11;;;;;;;0.20;0.20;;;3.70;99.90;;;;;;5005055;28;20457;-77
2023/03/28 07:17:37;;;;;;;0.57;0.27;;;3.80;99.90;;;;;;5004283;28;20370;-81
2023/03/28 07:20:03;;;;;;;5.83;0.63;;;3.90;99.90;;;;;;5003910;28;20132;-79
2023/03/28 07:22:29;;;;;;;0.30;0.30;;;4.00;99.90;;;;;;5006124;28;20050;-81
2023/03/28 07:24:55;;;;;;;0.52;0.32;;;4.00;99.90;;;;;;5003566;28;20044;-81
2023/03/28 07:27:21;;;;;;;0.50;0.50;;;4.10;99.90;;;;;;5005121;28;20486;-80
2023/03/28 07:29:46;;;;;;;1.90;0.53;;;4.10;99.90;;;;;;5005392;28;20072;-82
2023/03/28 07:32:13;;;;;;;0.43;0.43;;;4.10;99.90;;;;;;5003409;28;20041;-77
2023/03/28 07:34:39;;;;;;;2.38;0.73;;;4.20;99.90;;;;;;5005425;28;20113;-81
2023/03/28 07:37:04;;;;;;;4.28;0.40;;;4.20;99.90;;;;;;5003081;28;20126;-77
2023/03/28 07:39:30;;;;;;;0.30;0.30;;;4.10;99.90;;;;;;5002963;28;20050;-79
2023/03/28 07:41:56;;;;;;;3.85;0.57;;;4.20;99.90;;;;;;5004330;28;20046;-82
2023/03/28 07:44:21;;;;;;;0.43;0.20;;;4.20;99.90;;;;;;5004704;28;20050;-77
2023/03/28 07:46:47;;;;;;;0.53;0.53;;;4.30;99.90;;;;;;5005251;28;20470;-81
2023/03/28 07:49:14;;;;;;;0.50;0.50;;;4.30;99.90;;;;;;5003305;28;20136;-81
2023/03/28 07:51:40;;;;;;;0.35;0.35;;;4.40;99.90;;;;;;5004603;28;20041;-81
2023/03/28 07:54:08;;;;;;;0.52;0.52;;;4.40;99.90;;;;;;5003227;28;20046;-81
2023/03/28 07:56:33;;;;;;;0.32;0.30;;;4.50;99.90;;;;;;5003474;28;20049;-79
2023/03/28 07:59:00;;;;;;;0.43;0.30;;;4.50;99.90;;;;;;5005818;28;20537;-78
2023/03/28 08:01:26;;;;;;;0.55;0.30;;;4.60;99.90;;;;;;5005293;28;20087;-82
2023/03/28 08:03:52;;;;;;;1.08;0.40;;;4.60;99.90;;;;;;5004498;28;20563;-77
2023/03/28 08:06:17;;;;;;;0.40;0.40;;;4.70;99.90;;;;;;5004738;28;20038;-82
2023/03/28 08:08:43;;;;;;;0.20;0.20;;;4.70;99.90;;;;;;5004789;28;20254;-81
2023/03/28 08:11:11;;;;;;;0.30;0.30;;;4.70;99.90;;;;;;5003459;28;20568;-76
2023/03/28 08:13:36;;;;;;;0.82;0.45;;;4.80;99.90;;;;;;5004935;28;20033;-78
2023/03/28 08:16:02;;;;;;;0.10;0.10;;;4.90;99.90;;;;;;5019493;28;20376;-80
2023/03/28 08:18:27;;;;;;;0.30;0.30;;;5.00;99.90;;;;;;5004869;28;20068;-81
2023/03/28 08:21:02;;;;;;;0.20;0.20;;;5.00;99.90;;;;;;5003958;28;20041;-77
2023/03/28 08:23:28;;;;;;;2.05;0.35;;;5.10;99.90;;;;;;5003580;28;20052;-81
2023/03/28 08:26:03;;;;;;;0.82;0.82;;;5.10;99.90;;;;;;5003096;28;20140;-80
2023/03/28 08:28:31;;;;;;;0.10;0.10;;;5.20;99.90;;;;;;5004500;28;20038;-81
2023/03/28 08:30:56;;;;;;;0.15;0.15;;;5.20;99.90;;;;;;5004687;28;20046;-80
2023/03/28 08:33:22;;;;;;;0.30;0.30;;;5.20;99.90;;;;;;5003938;28;20429;-82
2023/03/28 08:35:50;;;;;;;7.15;0.70;;;5.30;99.90;;;;;;5003905;28;20042;-79
2023/03/28 08:38:17;;;;;;;0.20;0.20;;;5.30;99.90;;;;;;5002722;28;20437;-79
2023/03/28 08:40:56;;;;;;;0.20;0.20;;;5.30;99.90;;;;;;5003515;28;20049;-82
2023/03/28 08:43:40;;;;;;;3.15;0.45;;;5.30;99.90;;;;;;5003988;28;20085;-79
2023/03/28 08:46:09;;;;;;;0.57;0.57;;;5.30;99.90;;;;;;5003075;28;20053;-81
2023/03/28 08:48:46;;;;;;;0.13;0.13;;;5.30;99.90;;;;;;5003700;28;20034;-82
2023/03/28 08:51:30;;;;;;;0.30;0.30;;;5.40;99.90;;;;;;5003646;28;20038;-79
2023/03/28 08:54:14;;;;;;;0.20;0.20;;;5.40;99.90;;;;;;4986451;28;20565;-82
2023/03/28 08:56:45;;;;;;;0.28;0.28;;;5.50;99.90;;;;;;5003623;28;20125;-83
2023/03/28 08:59:14;;;;;;;0.40;0.30;;;5.50;99.90;;;;;;5003218;28;20070;-82
2023/03/28 09:01:41;;;;;;;0.47;0.30;;;5.60;99.90;;;;;;5003641;28;20382;-78
2023/03/28 09:04:06;;;;;;;0.65;0.60;;;5.60;99.90;;;;;;5002348;28;20057;-81
2023/03/28 09:06:38;;;;;;;0.52;0.35;;;5.60;99.90;;;;;;5002981;28;20529;-82
2023/03/28 09:09:19;;;;;;;2.53;0.50;;;5.60;99.90;;;;;;5000914;28;20176;-81
2023/03/28 09:12:16;;;;;;;0.22;0.22;;;5.60;99.90;;;;;;5002367;28;20049;-79
2023/03/28 09:15:06;;;;;;;0.95;0.30;;;5.60;99.90;;;;;;5002867;28;20084;-84
2023/03/28 09:17:49;;;;;;;0.57;0.40;;;5.60;99.90;;;;;;4986857;28;20121;-80
2023/03/28 09:20:32;;;;;;;2.05;0.63;;;5.60;99.90;;;;;;5002433;28;20073;-78
2023/03/28 09:23:34;;;;;;;0.68;0.30;;;5.70;99.90;;;;;;4985849;28;20065;-79
2023/03/28 09:26:06;;;;;;;3.03;0.40;;;5.70;99.90;;;;;;5002633;28;20049;-80
2023/03/28 09:28:37;;;;;;;1.05;0.60;;;5.70;99.90;;;;;;5003622;28;20034;-77
2023/03/28 09:31:05;;;;;;;0.68;0.38;;;5.80;99.90;;;;;;4995563;28;20069;-79
2023/03/28 09:33:35;;;;;;;2.00;0.40;;;5.90;99.90;;;;;;4984480;28;20081;-79
2023/03/28 09:36:03;;;;;;;1.65;0.47;;;5.90;99.90;;;;;;5000653;28;20116;-80
2023/03/28 09:38:32;;;;;;;0.80;0.70;;;6.00;99.90;;;;;;5003648;28;20351;-80
2023/03/28 09:40:59;;;;;;;0.65;0.40;;;6.10;99.90;;;;;;4996210;28;20039;-80
2023/03/28 09:43:50;;;;;;;0.93;0.60;;;6.10;99.90;;;;;;5000767;28;20046;-79
2023/03/28 09:46:39;;;;;;;0.68;0.50;;;6.20;99.90;;;;;;5003267;28;20046;-80
2023/03/28 09:49:04;;;;;;;0.60;0.60;;;6.20;99.90;;;;;;5001963;28;20054;-78
2023/03/28 09:51:30;;;;;;;0.50;0.50;;;6.30;99.90;;;;;;5002519;28;20108;-79
2023/03/28 09:53:56;;;;;;;1.20;0.65;;;6.30;99.90;;;;;;4990403;28;20299;-81
2023/03/28 09:57:00;;;;;;;0.75;0.63;;;6.40;99.90;;;;;;4990465;28;20468;-77
2023/03/28 09:59:29;;;;;;;0.77;0.52;;;6.40;99.90;;;;;;4984123;28;20050;-79
2023/03/28 10:01:56;;;;;;;0.47;0.47;;;6.40;99.90;;;;;;5003861;28;20055;-79
2023/03/28 10:04:27;;;;;;;1.73;0.60;;;6.50;99.90;;;;;;4994451;28;20128;-80
2023/03/28 10:07:15;;;;;;;0.30;0.30;;;6.50;99.90;;;;;;4993872;28;20250;-81
2023/03/28 10:09:50;;;;;;;0.90;0.47;;;6.50;99.90;;;;;;4977713;28;20050;-80
2023/03/28 10:12:37;;;;;;;1.67;0.73;;;6.60;99.90;;;;;;5002992;28;20133;-81
2023/03/28 10:15:03;;;;;;;1.00;0.55;;;6.70;99.90;;;;;;5006122;28;20487;-83
2023/03/28 10:17:34;;;;;;;1.77;0.60;;;6.70;99.90;;;;;;4989193;28;20046;-80
2023/03/28 10:20:05;;;;;;;1.70;0.68;;;6.80;99.90;;;;;;5002972;28;20038;-76
2023/03/28 10:22:36;;;;;;;1.00;0.50;;;6.80;99.90;;;;;;5003857;28;20077;-78
2023/03/28 10:25:04;;;;;;;0.90;0.90;;;6.80;99.90;;;;;;5004288;28;20461;-79
2023/03/28 10:27:33;;;;;;;1.10;0.50;;;6.80;99.90;;;;;;5003042;28;20141;-80
2023/03/28 10:30:24;;;;;;;0.55;0.55;;;6.80;99.90;;;;;;4999945;28;20117;-79
2023/03/28 10:33:20;;;;;;;1.13;0.65;;;6.80;99.90;;;;;;4969792;28;20046;-82
2023/03/28 10:35:58;;;;;;;1.75;0.75;;;6.90;99.90;;;;;;4972620;28;20040;-80
2023/03/28 10:38:30;;;;;;;1.13;0.57;;;7.00;99.90;;;;;;4997634;28;20034;-84
2023/03/28 10:41:02;;;;;;;0.90;0.63;;;7.00;99.90;;;;;;5000975;28;20046;-78
2023/03/28 10:43:40;;;;;;;0.65;0.65;;;7.00;99.90;;;;;;5005458;28;20079;-75
2023/03/28 10:46:16;;;;;;;3.22;1.05;;;7.00;99.90;;;;;;5006299;28;20565;-78
2023/03/28 10:48:55;;;;;;;0.65;0.65;;;7.00;99.90;;;;;;4993626;28;20092;-78
2023/03/28 10:51:25;;;;;;;3.70;0.77;;;7.00;99.90;;;;;;5006798;28;20096;-78
2023/03/28 10:54:11;;;;;;;2.88;0.90;;;7.10;99.90;;;;;;5001143;28;20042;-77
2023/03/28 10:56:54;;;;;;;1.20;0.57;;;7.10;99.90;;;;;;5002598;28;20050;-78
2023/03/28 10:59:29;;;;;;;1.52;0.73;;;7.20;99.90;;;;;;5020800;28;20050;-79
2023/03/28 11:02:31;;;;;;;0.73;0.57;;;7.20;99.90;;;;;;5010276;28;20529;-78
2023/03/28 11:05:02;;;;;;;0.85;0.80;;;7.20;99.90;;;;;;5005123;28;20050;-78
2023/03/28 11:08:13;;;;;;;2.03;0.77;;;7.30;99.90;;;;;;5006029;28;20541;-79
2023/03/28 11:10:45;;;;;;;1.50;0.75;;;7.30;99.90;;;;;;4968384;28;20406;-80
2023/03/28 11:13:22;;;;;;;1.85;0.80;;;7.40;99.90;;;;;;5000940;28;20042;-78
2023/03/28 11:16:08;;;;;;;2.17;0.77;;;7.40;99.90;;;;;;4968256;28;20042;-78
2023/03/28 11:19:02;;;;;;;2.92;0.70;;;7.50;99.90;;;;;;4991233;28;20049;-78
2023/03/28 11:21:36;;;;;;;0.95;0.63;;;7.50;99.90;;;;;;4997551;28;20046;-77
2023/03/28 11:24:22;;;;;;;2.88;0.73;;;7.50;99.90;;;;;;4985115;28;20483;-79
2023/03/28 11:27:04;;;;;;;0.77;0.75;;;7.50;99.90;;;;;;4977267;28;20054;-79
2023/03/28 11:29:50;;;;;;;1.27;0.82;;;7.60;99.90;;;;;;4985752;28;20033;-81
2023/03/28 11:32:22;;;;;;;3.85;1.05;;;7.60;99.90;;;;;;4993927;28;20081;-78
2023/03/28 11:35:03;;;;;;;1.20;0.63;;;7.70;99.90;;;;;;5002414;28;20034;-77
2023/03/28 11:38:08;;;;;;;0.68;0.68;;;7.70;99.90;;;;;;4999195;28;20077;-78
2023/03/28 11:40:47;;;;;;;0.93;0.82;;;7.70;99.90;;;;;;5002662;28;20554;-79
2023/03/28 11:43:23;;;;;;;1.92;1.17;;;7.80;99.90;;;;;;4983157;28;20506;-81
2023/03/28 11:45:54;;;;;;;3.53;1.17;;;7.80;99.90;;;;;;4995320;28;20045;-78
2023/03/28 11:48:33;;;;;;;2.30;1.10;;;7.70;99.90;;;;;;4996811;28;20807;-77
2023/03/28 11:51:10;;;;;;;3.08;1.55;;;7.90;99.90;;;;;;4991416;28;20421;-77
2023/03/28 11:54:00;;;;;;;3.42;1.33;;;7.90;99.90;;;;;;4995512;28;20065;-77
2023/03/28 11:56:35;;;;;;;2.38;0.75;;;8.00;99.90;;;;;;5004493;28;20052;-77
2023/03/28 11:59:26;;;;;;;1.05;0.70;;;8.10;99.90;;;;;;5004377;28;20050;-77
2023/03/28 12:02:35;;;;;;;3.00;0.80;;;8.10;99.90;;;;;;4994088;28;20061;-77
2023/03/28 12:05:25;;;;;;;1.13;0.80;;;8.20;99.90;;;;;;5009178;28;20675;-78
2023/03/28 12:08:12;;;;;;;0.60;0.60;;;8.20;99.90;;;;;;5004744;28;20045;-78
2023/03/28 12:10:41;;;;;;;3.55;1.35;;;8.30;99.90;;;;;;5002253;28;20046;-78
2023/03/28 12:13:37;;;;;;;2.13;1.00;;;8.20;99.90;;;;;;4986371;28;20155;-78
2023/03/28 12:16:11;;;;;;;1.67;0.73;;;8.20;99.90;;;;;;4986413;28;20133;-78
2023/03/28 12:18:48;;;;;;;1.23;1.05;;;8.20;99.90;;;;;;5003158;28;20057;-77
2023/03/28 12:21:24;;;;;;;1.15;0.70;;;8.20;99.90;;;;;;5003051;28;20432;-78
2023/03/28 12:24:15;;;;;;;0.90;0.88;;;8.20;99.90;;;;;;4986328;28;20100;-76
2023/03/28 12:27:16;;;;;;;1.23;0.65;;;8.30;99.90;;;;;;5002959;28;20050;-78
2023/03/28 12:29:56;;;;;;;1.95;0.70;;;8.30;99.90;;;;;;5004093;28;20042;-78
2023/03/28 12:32:24;;;;;;;1.23;0.70;;;8.30;99.90;;;;;;5003619;28;20139;-78
2023/03/28 12:34:59;;;;;;;1.65;0.70;;;8.30;99.90;;;;;;5004350;28;20054;-78
2023/03/28 12:37:40;;;;;;;1.00;0.80;;;8.30;99.90;;;;;;5003781;28;20038;-77
2023/03/28 12:40:12;;;;;;;1.40;0.90;;;8.30;99.90;;;;;;5002757;28;20050;-78
2023/03/28 12:42:41;;;;;;;1.00;0.90;;;8.30;99.90;;;;;;5003952;28;20113;-78
2023/03/28 12:45:31;;;;;;;0.75;0.75;;;8.30;99.90;;;;;;5002355;28;20089;-78
2023/03/28 12:48:07;;;;;;;2.38;0.75;;;8.40;99.90;;;;;;5003899;28;20068;-78
2023/03/28 12:50:48;;;;;;;5.28;1.38;;;8.30;99.90;;;;;;5000794;28;20096;-78
2023/03/28 12:53:15;;;;;;;1.63;0.80;;;8.40;99.90;;;;;;5003984;28;20030;-78
2023/03/28 12:55:46;;;;;;;1.50;1.00;;;8.40;99.90;;;;;;5002869;28;20034;-78
2023/03/28 12:58:24;;;;;;;2.55;1.05;;;8.40;99.90;;;;;;4985653;28;20605;-78
2023/03/28 13:01:03;;;;;;;2.90;0.95;;;8.50;99.90;;;;;;5002363;28;20049;-78
2023/03/28 13:03:38;;;;;;;2.92;1.35;;;8.50;99.90;;;;;;5000290;28;20249;-78
2023/03/28 13:06:35;;;;;;;3.20;1.05;;;8.50;99.90;;;;;;5000572;28;20521;-78
2023/03/28 13:09:19;;;;;;;2.92;0.90;;;8.50;99.90;;;;;;4980353;28;20058;-77
2023/03/28 13:12:02;;;;;;;2.40;1.02;;;8.50;99.90;;;;;;5003025;28;20049;-77
2023/03/28 13:14:27;;;;;;;2.53;1.33;;;8.50;99.90;;;;;;5004312;28;20044;-78
2023/03/28 13:17:01;;;;;;;1.25;0.88;;;8.50;99.90;;;;;;5003715;28;20054;-78
2023/03/28 13:20:06;;;;;;;2.90;1.38;;;8.50;99.90;;;;;;5002593;28;20605;-78
2023/03/28 13:22:40;;;;;;;3.10;1.00;;;8.50;99.90;;;;;;4979630;28;20046;-78
2023/03/28 13:25:19;;;;;;;1.73;1.05;;;8.60;99.90;;;;;;4993164;28;20042;-79